Time;durP1;ratioP1;P1;durP2;ratioP2;P2;SDS_P1;SDS_P2;PMS_P1;PMS_P2;Temp;Humidity;BMP_temperature;BMP_pressure;BME280_temperature;BME280_humidity;BME280_pressure;Samples;Min_cycle;Max_cycle;Signal;HPM_P1;HPM_P2
2023/09/08 00:00:10;;;;;;;0.32;0.32;;;;;;;;;;4918855;28;20533;-75
2023/09/08 00:02:38;;;;;;;0.00;0.00;;;;;;;;;;4913409;28;20059;-74
2023/09/08 00:05:05;;;;;;;0.20;0.20;;;;;;;;;;4918240;28;20051;-74
2023/09/08 00:07:33;;;;;;;0.00;0.00;;;;;;;;;;4921354;28;20051;-75
2023/09/08 00:10:00;;;;;;;0.15;0.15;;;;;;;;;;4917403;28;20055;-74
2023/09/08 00:12:28;;;;;;;0.00;0.00;;;;;;;;;;4916116;28;20421;-73
2023/09/08 00:14:55;;;;;;;0.00;0.00;;;;;;;;;;4921790;28;20047;-76
2023/09/08 00:17:23;;;;;;;0.00;0.00;;;;;;;;;;4917871;28;20410;-75
2023/09/08 00:19:50;;;;;;;0.00;0.00;;;;;;;;;;4912710;28;20172;-74
2023/09/08 00:22:18;;;;;;;0.00;0.00;;;;;;;;;;4930938;28;20497;-76
2023/09/08 00:24:45;;;;;;;0.30;0.30;;;;;;;;;;4939589;29;20612;-74
2023/09/08 00:27:12;;;;;;;0.15;0.15;;;;;;;;;;4947363;29;20047;-75
2023/09/08 00:29:40;;;;;;;0.10;0.10;;;;;;;;;;4946002;28;20510;-76
2023/09/08 00:32:07;;;;;;;0.38;0.25;;;;;;;;;;4947153;28;20058;-74
2023/09/08 00:34:35;;;;;;;0.00;0.00;;;;;;;;;;4940362;29;20047;-74
2023/09/08 00:37:07;;;;;;;0.47;0.32;;;;;;;;;;4939386;29;20062;-76
2023/09/08 00:39:38;;;;;;;0.00;0.00;;;;;;;;;;4946264;28;20058;-74
2023/09/08 00:42:06;;;;;;;0.17;0.17;;;;;;;;;;4946396;28;20043;-74
2023/09/08 00:44:34;;;;;;;0.00;0.00;;;;;;;;;;4947305;28;20462;-75
2023/09/08 00:47:02;;;;;;;0.00;0.00;;;;;;;;;;4947343;29;20043;-76
2023/09/08 00:49:29;;;;;;;0.10;0.10;;;;;;;;;;4944843;29;20047;-76
2023/09/08 00:51:57;;;;;;;0.00;0.00;;;;;;;;;;4941336;28;20524;-75
2023/09/08 00:54:24;;;;;;;0.52;0.15;;;;;;;;;;4940921;29;20051;-74
2023/09/08 00:56:56;;;;;;;0.00;0.00;;;;;;;;;;4944145;28;20043;-75
2023/09/08 00:59:24;;;;;;;0.30;0.30;;;;;;;;;;4945501;29;20130;-74
2023/09/08 01:01:53;;;;;;;0.30;0.20;;;;;;;;;;4943493;28;20063;-74
2023/09/08 01:04:21;;;;;;;0.00;0.00;;;;;;;;;;4945908;29;20501;-74
2023/09/08 01:06:49;;;;;;;0.00;0.00;;;;;;;;;;4945960;29;20106;-74
2023/09/08 01:09:18;;;;;;;0.13;0.13;;;;;;;;;;4941386;29;20050;-75
2023/09/08 01:11:46;;;;;;;0.00;0.00;;;;;;;;;;4961140;28;20482;-74
2023/09/08 01:14:19;;;;;;;0.00;0.00;;;;;;;;;;4977332;23;20052;-77
2023/09/08 01:16:47;;;;;;;0.20;0.20;;;;;;;;;;4968309;28;20050;-76
2023/09/08 01:19:15;;;;;;;0.52;0.40;;;;;;;;;;4949028;28;20039;-75
2023/09/08 01:21:45;;;;;;;0.40;0.40;;;;;;;;;;4942860;28;20501;-76
2023/09/08 01:24:32;;;;;;;4.50;4.05;;;;;;;;;;4939946;28;20047;-75
2023/09/08 01:26:59;;;;;;;0.30;0.30;;;;;;;;;;4931417;28;20078;-75
2023/09/08 01:29:28;;;;;;;0.57;0.57;;;;;;;;;;4934214;28;20056;-75
2023/09/08 01:31:56;;;;;;;0.03;0.03;;;;;;;;;;4936361;28;20047;-75
2023/09/08 01:34:26;;;;;;;0.00;0.00;;;;;;;;;;4944255;28;20425;-75
2023/09/08 01:36:53;;;;;;;0.00;0.00;;;;;;;;;;4939847;28;20047;-75
2023/09/08 01:39:21;;;;;;;0.00;0.00;;;;;;;;;;4936370;28;20438;-76
2023/09/08 01:41:48;;;;;;;0.10;0.10;;;;;;;;;;4933617;28;20058;-75
2023/09/08 01:44:15;;;;;;;0.10;0.10;;;;;;;;;;4938151;28;20083;-75
2023/09/08 01:46:43;;;;;;;3.40;1.35;;;;;;;;;;4946614;28;20512;-75
2023/09/08 01:49:11;;;;;;;0.00;0.00;;;;;;;;;;4929915;28;20047;-75
2023/09/08 01:51:38;;;;;;;0.15;0.15;;;;;;;;;;4938192;28;20055;-75
2023/09/08 01:54:07;;;;;;;0.00;0.00;;;;;;;;;;4945008;28;20065;-75
2023/09/08 01:56:34;;;;;;;0.00;0.00;;;;;;;;;;4945399;28;20457;-75
2023/09/08 01:59:01;;;;;;;0.13;0.13;;;;;;;;;;4935508;28;20651;-75
2023/09/08 02:01:29;;;;;;;0.00;0.00;;;;;;;;;;4944030;28;20040;-76
2023/09/08 02:03:56;;;;;;;0.52;0.52;;;;;;;;;;4944073;28;20043;-75
2023/09/08 02:06:24;;;;;;;0.40;0.40;;;;;;;;;;4941848;28;20059;-75
2023/09/08 02:08:52;;;;;;;0.10;0.10;;;;;;;;;;4930471;28;20067;-76
2023/09/08 02:11:20;;;;;;;40.45;37.83;;;;;;;;;;4936774;28;20047;-75
2023/09/08 02:13:49;;;;;;;1.02;1.02;;;;;;;;;;4947582;28;20142;-75
2023/09/08 02:16:16;;;;;;;12.55;11.88;;;;;;;;;;4939756;28;20044;-75
2023/09/08 02:18:45;;;;;;;81.03;75.65;;;;;;;;;;4948800;28;20541;-75
2023/09/08 02:21:12;;;;;;;40.67;38.33;;;;;;;;;;4941026;28;20126;-75
2023/09/08 02:23:40;;;;;;;25.08;23.13;;;;;;;;;;4947859;28;20494;-75
2023/09/08 02:26:07;;;;;;;122.13;113.85;;;;;;;;;;4935259;28;20047;-75
2023/09/08 02:28:35;;;;;;;6.35;5.97;;;;;;;;;;4934426;28;20043;-75
2023/09/08 02:31:03;;;;;;;45.90;42.78;;;;;;;;;;4940187;28;20052;-75
2023/09/08 02:33:30;;;;;;;6.00;5.15;;;;;;;;;;4941803;28;20059;-75
2023/09/08 02:36:05;;;;;;;2.35;2.15;;;;;;;;;;4948629;28;20039;-75
2023/09/08 02:38:35;;;;;;;1.10;0.95;;;;;;;;;;4952769;28;20043;-75
2023/09/08 02:41:04;;;;;;;2.08;1.85;;;;;;;;;;4942524;28;20162;-75
2023/09/08 02:43:32;;;;;;;2.03;0.88;;;;;;;;;;4950745;28;20050;-75
2023/09/08 02:45:59;;;;;;;0.55;0.55;;;;;;;;;;4932254;28;20047;-75
2023/09/08 02:48:27;;;;;;;0.32;0.32;;;;;;;;;;4946988;28;20051;-75
2023/09/08 02:50:55;;;;;;;2.22;2.03;;;;;;;;;;4943039;28;20524;-75
2023/09/08 02:53:23;;;;;;;0.68;0.52;;;;;;;;;;4943307;28;20109;-75
2023/09/08 02:55:51;;;;;;;20.52;18.30;;;;;;;;;;4946788;28;20054;-75
2023/09/08 02:58:19;;;;;;;0.70;0.70;;;;;;;;;;4934368;28;20039;-75
2023/09/08 03:00:47;;;;;;;1.20;0.85;;;;;;;;;;4964225;28;20043;-76
2023/09/08 03:03:15;;;;;;;2.85;0.77;;;;;;;;;;4938150;28;20457;-75
2023/09/08 03:05:43;;;;;;;3.40;1.20;;;;;;;;;;4941040;28;20114;-75
2023/09/08 03:08:10;;;;;;;1.08;0.57;;;;;;;;;;4943904;28;20043;-75
2023/09/08 03:10:38;;;;;;;0.35;0.35;;;;;;;;;;4947084;28;20050;-75
2023/09/08 03:13:05;;;;;;;0.77;0.77;;;;;;;;;;4946397;28;20087;-75
2023/09/08 03:15:34;;;;;;;0.15;0.15;;;;;;;;;;4959172;28;20294;-75
2023/09/08 03:18:02;;;;;;;2.13;2.00;;;;;;;;;;4936146;28;20058;-75
2023/09/08 03:20:29;;;;;;;12.23;8.15;;;;;;;;;;4944586;28;20497;-75
2023/09/08 03:22:56;;;;;;;0.63;0.63;;;;;;;;;;4941684;28;20146;-76
2023/09/08 03:25:24;;;;;;;0.50;0.50;;;;;;;;;;4941706;28;20051;-76
2023/09/08 03:27:51;;;;;;;0.05;0.05;;;;;;;;;;4946576;28;20043;-75
2023/09/08 03:30:19;;;;;;;25.70;23.98;;;;;;;;;;4932243;28;20089;-77
2023/09/08 03:32:46;;;;;;;1.67;1.48;;;;;;;;;;4942297;28;20055;-75
2023/09/08 03:35:14;;;;;;;2.35;2.15;;;;;;;;;;4942508;28;20046;-76
2023/09/08 03:37:42;;;;;;;0.28;0.28;;;;;;;;;;4934944;28;20583;-76
2023/09/08 03:40:11;;;;;;;1.65;0.60;;;;;;;;;;4942438;28;20050;-75
2023/09/08 03:42:41;;;;;;;0.50;0.50;;;;;;;;;;4951832;28;20069;-76
2023/09/08 03:45:09;;;;;;;0.20;0.20;;;;;;;;;;4935299;28;20063;-76
2023/09/08 03:47:36;;;;;;;0.52;0.52;;;;;;;;;;4944211;28;20548;-76
2023/09/08 03:50:06;;;;;;;1.70;1.67;;;;;;;;;;4931837;28;20054;-76
2023/09/08 03:52:33;;;;;;;1.42;1.42;;;;;;;;;;4948841;28;20052;-75
2023/09/08 03:55:01;;;;;;;0.13;0.13;;;;;;;;;;4943561;28;20544;-76
2023/09/08 03:57:29;;;;;;;0.90;0.70;;;;;;;;;;4936389;28;20070;-75
2023/09/08 03:59:56;;;;;;;0.10;0.10;;;;;;;;;;4948102;28;20485;-75
2023/09/08 04:02:23;;;;;;;2.90;1.98;;;;;;;;;;4942038;28;20045;-75
2023/09/08 04:04:51;;;;;;;0.10;0.10;;;;;;;;;;4945628;28;20066;-76
2023/09/08 04:07:18;;;;;;;1.60;0.65;;;;;;;;;;4944878;28;20465;-75
2023/09/08 04:09:46;;;;;;;0.13;0.13;;;;;;;;;;4938693;28;20051;-75
2023/09/08 04:12:14;;;;;;;0.30;0.30;;;;;;;;;;4951469;28;20051;-75
2023/09/08 04:14:41;;;;;;;2.80;1.80;;;;;;;;;;4952575;28;20086;-76
2023/09/08 04:17:09;;;;;;;0.00;0.00;;;;;;;;;;4937191;28;20051;-76
2023/09/08 04:19:37;;;;;;;0.20;0.05;;;;;;;;;;4944257;28;20051;-76
2023/09/08 04:22:04;;;;;;;0.00;0.00;;;;;;;;;;4938874;28;20059;-75
2023/09/08 04:24:35;;;;;;;0.30;0.30;;;;;;;;;;4942178;28;20138;-75
2023/09/08 04:27:03;;;;;;;0.00;0.00;;;;;;;;;;4937200;28;20051;-75
2023/09/08 04:29:31;;;;;;;0.00;0.00;;;;;;;;;;4943445;28;20047;-75
2023/09/08 04:31:59;;;;;;;0.15;0.15;;;;;;;;;;4945496;28;20067;-76
2023/09/08 04:34:27;;;;;;;0.35;0.25;;;;;;;;;;4943373;28;20062;-75
2023/09/08 04:36:54;;;;;;;0.90;0.32;;;;;;;;;;4956623;28;20039;-76
2023/09/08 04:39:22;;;;;;;0.38;0.38;;;;;;;;;;4932115;28;20389;-75
2023/09/08 04:41:50;;;;;;;6.15;5.82;;;;;;;;;;4944997;28;20062;-75
2023/09/08 04:44:18;;;;;;;0.57;0.57;;;;;;;;;;4940989;28;20110;-76
2023/09/08 04:46:46;;;;;;;4.55;4.32;;;;;;;;;;4940734;28;20124;-75
2023/09/08 04:49:14;;;;;;;0.00;0.00;;;;;;;;;;4948619;28;20150;-76
2023/09/08 04:51:41;;;;;;;0.00;0.00;;;;;;;;;;4943589;28;20056;-74
2023/09/08 04:54:09;;;;;;;0.45;0.45;;;;;;;;;;4947156;28;20047;-75
2023/09/08 04:56:37;;;;;;;0.00;0.00;;;;;;;;;;4944476;28;20046;-76
2023/09/08 04:59:04;;;;;;;0.45;0.40;;;;;;;;;;4937954;28;20406;-75
2023/09/08 05:01:32;;;;;;;0.43;0.30;;;;;;;;;;4937188;28;20070;-75
2023/09/08 05:04:01;;;;;;;0.52;0.40;;;;;;;;;;4940440;28;20103;-75
2023/09/08 05:06:29;;;;;;;0.15;0.15;;;;;;;;;;4948886;28;20086;-75
2023/09/08 05:08:56;;;;;;;7.43;6.93;;;;;;;;;;4959106;28;20131;-75
2023/09/08 05:11:25;;;;;;;0.20;0.10;;;;;;;;;;4939822;28;20098;-75
2023/09/08 05:13:53;;;;;;;0.10;0.10;;;;;;;;;;4940399;28;20066;-76
2023/09/08 05:16:36;;;;;;;0.03;0.03;;;;;;;;;;4947786;28;20154;-77
2023/09/08 05:19:05;;;;;;;0.05;0.05;;;;;;;;;;4958487;28;20580;-75
2023/09/08 05:21:34;;;;;;;0.10;0.10;;;;;;;;;;4947521;28;20050;-76
2023/09/08 05:24:03;;;;;;;21.80;20.25;;;;;;;;;;4931608;28;20047;-76
2023/09/08 05:26:31;;;;;;;0.10;0.10;;;;;;;;;;4946566;28;20047;-76
2023/09/08 05:28:58;;;;;;;0.43;0.43;;;;;;;;;;4939162;28;20043;-76
2023/09/08 05:31:27;;;;;;;0.00;0.00;;;;;;;;;;4942534;28;20047;-76
2023/09/08 05:33:55;;;;;;;0.30;0.30;;;;;;;;;;4944431;28;20079;-75
2023/09/08 05:36:22;;;;;;;0.00;0.00;;;;;;;;;;4942980;28;20158;-76
2023/09/08 05:38:51;;;;;;;0.40;0.10;;;;;;;;;;4939831;28;20043;-76
2023/09/08 05:41:19;;;;;;;5.47;5.18;;;;;;;;;;4937775;28;20126;-76
2023/09/08 05:43:47;;;;;;;0.22;0.17;;;;;;;;;;4945331;28;20053;-76
2023/09/08 05:46:14;;;;;;;0.15;0.15;;;;;;;;;;4960280;28;20397;-76
2023/09/08 05:48:42;;;;;;;0.47;0.10;;;;;;;;;;4949530;28;20071;-76
2023/09/08 05:51:09;;;;;;;0.30;0.30;;;;;;;;;;4941893;28;20047;-77
2023/09/08 05:53:39;;;;;;;1.10;0.63;;;;;;;;;;4949950;28;20119;-76
2023/09/08 05:56:08;;;;;;;9.13;8.25;;;;;;;;;;4944323;28;20055;-75
2023/09/08 05:58:36;;;;;;;3.28;3.03;;;;;;;;;;4941742;28;20047;-75
2023/09/08 06:01:04;;;;;;;0.60;0.60;;;;;;;;;;4944404;28;20043;-75
2023/09/08 06:03:33;;;;;;;10.88;10.23;;;;;;;;;;4944546;28;20134;-75
2023/09/08 06:06:01;;;;;;;0.22;0.22;;;;;;;;;;4946815;28;20082;-76
2023/09/08 06:08:29;;;;;;;1.45;1.33;;;;;;;;;;4943242;28;20049;-75
2023/09/08 06:10:56;;;;;;;1.48;1.38;;;;;;;;;;4942118;28;20047;-76
2023/09/08 06:13:25;;;;;;;0.60;0.43;;;;;;;;;;4948715;28;20051;-76
2023/09/08 06:15:53;;;;;;;0.30;0.10;;;;;;;;;;4936815;28;20481;-76
2023/09/08 06:18:21;;;;;;;0.10;0.10;;;;;;;;;;4936128;28;20502;-76
2023/09/08 06:20:48;;;;;;;20.35;18.92;;;;;;;;;;4941226;28;20047;-76
2023/09/08 06:23:20;;;;;;;1.08;0.77;;;;;;;;;;4947751;28;20043;-77
2023/09/08 06:25:49;;;;;;;0.10;0.10;;;;;;;;;;4960026;28;20051;-76
2023/09/08 06:28:17;;;;;;;0.10;0.10;;;;;;;;;;4945760;28;20051;-76
2023/09/08 06:30:44;;;;;;;0.20;0.20;;;;;;;;;;4939055;28;20051;-77
2023/09/08 06:33:12;;;;;;;1.90;1.85;;;;;;;;;;4936262;28;20047;-76
2023/09/08 06:35:40;;;;;;;0.80;0.43;;;;;;;;;;4948030;28;20126;-76
2023/09/08 06:38:07;;;;;;;0.20;0.20;;;;;;;;;;4941168;28;20102;-78
2023/09/08 06:40:35;;;;;;;59.38;54.63;;;;;;;;;;4945814;28;20036;-76
2023/09/08 06:43:03;;;;;;;6.72;6.38;;;;;;;;;;4939303;28;20065;-76
2023/09/08 06:45:50;;;;;;;0.47;0.47;;;;;;;;;;4939375;28;20040;-75
2023/09/08 06:48:20;;;;;;;0.20;0.20;;;;;;;;;;4944360;28;20050;-76
2023/09/08 06:50:48;;;;;;;7.78;7.32;;;;;;;;;;4927170;28;20808;-75
2023/09/08 06:53:16;;;;;;;0.10;0.10;;;;;;;;;;4937731;28;20059;-76
2023/09/08 06:55:43;;;;;;;0.22;0.20;;;;;;;;;;4935458;28;20067;-75
2023/09/08 06:58:14;;;;;;;1.17;0.32;;;;;;;;;;4948824;28;20134;-75
2023/09/08 07:00:42;;;;;;;0.43;0.43;;;;;;;;;;4947804;28;20048;-76
2023/09/08 07:03:10;;;;;;;0.08;0.08;;;;;;;;;;4950669;28;20493;-75
2023/09/08 07:05:40;;;;;;;0.15;0.15;;;;;;;;;;4966070;28;20118;-75
2023/09/08 07:08:08;;;;;;;0.30;0.30;;;;;;;;;;4965506;28;20073;-75
2023/09/08 07:10:35;;;;;;;0.13;0.13;;;;;;;;;;4938791;28;20052;-75
2023/09/08 07:13:07;;;;;;;0.00;0.00;;;;;;;;;;4951939;28;20382;-78
2023/09/08 07:18:38;;;;;;;0.45;0.45;;;;;;;;;;4871783;29;20092;-76
2023/09/08 07:21:07;;;;;;;0.20;0.20;;;;;;;;;;4889721;29;20055;-76
2023/09/08 07:23:36;;;;;;;0.08;0.08;;;;;;;;;;4852704;29;20060;-75
2023/09/08 07:26:05;;;;;;;0.00;0.00;;;;;;;;;;4858018;29;20064;-76
2023/09/08 07:28:34;;;;;;;0.32;0.32;;;;;;;;;;4856990;29;20408;-76
2023/09/08 07:31:05;;;;;;;0.38;0.13;;;;;;;;;;4871134;29;20048;-76
2023/09/08 07:33:36;;;;;;;5.72;5.18;;;;;;;;;;4862095;29;20567;-75
2023/09/08 07:36:05;;;;;;;0.32;0.32;;;;;;;;;;4855870;29;20144;-76
2023/09/08 07:38:33;;;;;;;0.08;0.08;;;;;;;;;;4857538;29;20416;-76
2023/09/08 07:41:02;;;;;;;8.40;7.88;;;;;;;;;;4869131;29;20061;-75
2023/09/08 07:43:31;;;;;;;0.13;0.13;;;;;;;;;;4873399;29;20053;-76
2023/09/08 07:45:59;;;;;;;0.88;0.55;;;;;;;;;;4857894;29;20057;-76
2023/09/08 07:48:26;;;;;;;0.10;0.10;;;;;;;;;;4865919;29;20112;-75
2023/09/08 07:50:54;;;;;;;0.52;0.52;;;;;;;;;;4851009;29;20464;-76
2023/09/08 07:53:21;;;;;;;0.10;0.10;;;;;;;;;;4872259;29;20068;-76
2023/09/08 07:55:49;;;;;;;0.10;0.10;;;;;;;;;;4873703;29;20053;-76
2023/09/08 07:58:16;;;;;;;0.00;0.00;;;;;;;;;;4873749;29;20053;-76
2023/09/08 08:00:44;;;;;;;1.38;1.25;;;;;;;;;;4875877;29;20052;-76
2023/09/08 08:03:11;;;;;;;0.20;0.20;;;;;;;;;;4865853;29;20068;-76
2023/09/08 08:05:38;;;;;;;0.08;0.08;;;;;;;;;;4856924;29;20061;-76
2023/09/08 08:08:07;;;;;;;0.10;0.10;;;;;;;;;;4873578;29;20087;-76
2023/09/08 08:10:35;;;;;;;0.00;0.00;;;;;;;;;;4868746;29;20204;-76
2023/09/08 08:13:02;;;;;;;2.17;0.25;;;;;;;;;;4873959;29;20049;-77
2023/09/08 08:15:37;;;;;;;0.00;0.00;;;;;;;;;;4874106;29;20520;-76
2023/09/08 08:18:07;;;;;;;0.17;0.10;;;;;;;;;;4865222;29;20041;-75
2023/09/08 08:20:35;;;;;;;0.17;0.17;;;;;;;;;;4865563;29;20053;-76
2023/09/08 08:23:03;;;;;;;0.10;0.10;;;;;;;;;;4873064;29;20297;-75
2023/09/08 08:25:31;;;;;;;0.10;0.10;;;;;;;;;;4856512;29;20053;-76
2023/09/08 08:28:00;;;;;;;0.25;0.25;;;;;;;;;;4872054;29;20053;-76
2023/09/08 08:30:28;;;;;;;0.38;0.25;;;;;;;;;;4865116;29;20128;-76
2023/09/08 08:32:55;;;;;;;0.47;0.47;;;;;;;;;;4879092;29;20249;-76
2023/09/08 08:35:23;;;;;;;0.20;0.20;;;;;;;;;;4870414;29;20061;-76
2023/09/08 08:37:51;;;;;;;0.00;0.00;;;;;;;;;;4867121;29;20049;-76
2023/09/08 08:40:18;;;;;;;10.98;9.88;;;;;;;;;;4872214;29;20052;-76
2023/09/08 08:42:46;;;;;;;0.20;0.20;;;;;;;;;;4872439;29;20060;-76
2023/09/08 08:45:14;;;;;;;1.38;0.55;;;;;;;;;;4871088;29;20049;-76
2023/09/08 08:47:42;;;;;;;0.20;0.20;;;;;;;;;;4865753;29;20160;-76
2023/09/08 08:50:10;;;;;;;0.00;0.00;;;;;;;;;;4868446;29;20136;-76
2023/09/08 08:52:39;;;;;;;0.15;0.15;;;;;;;;;;4851994;29;20468;-76
2023/09/08 08:55:08;;;;;;;0.10;0.10;;;;;;;;;;4871764;29;20484;-76
2023/09/08 08:57:38;;;;;;;0.43;0.43;;;;;;;;;;4870843;29;20047;-76
2023/09/08 09:00:09;;;;;;;0.00;0.00;;;;;;;;;;4871815;29;20072;-76
2023/09/08 09:02:40;;;;;;;0.10;0.10;;;;;;;;;;4866165;29;20045;-75
2023/09/08 09:05:14;;;;;;;0.05;0.05;;;;;;;;;;4869576;29;20104;-76
2023/09/08 09:07:42;;;;;;;0.40;0.30;;;;;;;;;;4864272;29;20090;-76
2023/09/08 09:10:10;;;;;;;1.40;1.33;;;;;;;;;;4864692;29;20458;-76
2023/09/08 09:12:38;;;;;;;0.20;0.20;;;;;;;;;;4871119;29;20163;-76
2023/09/08 09:15:08;;;;;;;0.32;0.32;;;;;;;;;;4864687;29;20061;-76
2023/09/08 09:17:35;;;;;;;0.52;0.50;;;;;;;;;;4864446;29;20132;-76
2023/09/08 09:20:14;;;;;;;0.32;0.32;;;;;;;;;;4872171;29;20045;-76
2023/09/08 09:22:42;;;;;;;0.28;0.28;;;;;;;;;;4872600;29;20056;-76
2023/09/08 09:25:10;;;;;;;1.27;0.75;;;;;;;;;;4873106;29;20140;-76
2023/09/08 09:27:40;;;;;;;0.05;0.05;;;;;;;;;;4872613;29;20063;-76
2023/09/08 09:30:08;;;;;;;0.40;0.40;;;;;;;;;;4871863;29;20053;-76
2023/09/08 09:32:36;;;;;;;0.35;0.10;;;;;;;;;;4872556;29;20504;-77
2023/09/08 09:35:04;;;;;;;1.45;0.40;;;;;;;;;;4872360;29;20049;-77
2023/09/08 09:37:32;;;;;;;0.00;0.00;;;;;;;;;;4871604;29;20053;-76
2023/09/08 09:40:00;;;;;;;0.40;0.40;;;;;;;;;;4864537;29;20804;-76
2023/09/08 09:42:28;;;;;;;0.10;0.10;;;;;;;;;;4869343;29;20437;-76
2023/09/08 09:44:56;;;;;;;0.10;0.10;;;;;;;;;;4860979;29;20049;-76
2023/09/08 09:47:24;;;;;;;0.13;0.13;;;;;;;;;;4870251;29;20064;-75
2023/09/08 09:49:53;;;;;;;0.10;0.10;;;;;;;;;;4871157;29;20045;-76
2023/09/08 09:52:26;;;;;;;2.47;0.85;;;;;;;;;;4870970;29;20053;-76
2023/09/08 09:54:55;;;;;;;0.30;0.20;;;;;;;;;;4870713;29;20055;-76
2023/09/08 09:57:23;;;;;;;0.32;0.28;;;;;;;;;;4870131;29;20147;-77
2023/09/08 09:59:53;;;;;;;0.32;0.32;;;;;;;;;;4871679;29;20106;-77
2023/09/08 10:02:21;;;;;;;0.50;0.50;;;;;;;;;;4853722;29;20045;-76
2023/09/08 10:04:50;;;;;;;0.00;0.00;;;;;;;;;;4865829;29;20088;-76
2023/09/08 10:07:18;;;;;;;0.10;0.10;;;;;;;;;;4871005;29;20500;-77
2023/09/08 10:09:46;;;;;;;0.88;0.80;;;;;;;;;;4863969;29;20057;-77
2023/09/08 10:12:16;;;;;;;0.43;0.43;;;;;;;;;;4870975;29;20049;-76
2023/09/08 10:14:44;;;;;;;1.58;1.48;;;;;;;;;;4864645;29;20132;-77
2023/09/08 10:17:25;;;;;;;0.10;0.10;;;;;;;;;;4852074;29;20060;-76
2023/09/08 10:19:54;;;;;;;0.05;0.05;;;;;;;;;;4866178;29;20086;-76
2023/09/08 10:22:26;;;;;;;2.15;1.35;;;;;;;;;;4869350;29;20049;-77
2023/09/08 10:24:55;;;;;;;0.75;0.65;;;;;;;;;;4870062;29;20056;-77
2023/09/08 10:27:23;;;;;;;0.20;0.20;;;;;;;;;;4861679;29;20423;-77
2023/09/08 10:29:52;;;;;;;0.47;0.47;;;;;;;;;;4872036;29;20507;-77
2023/09/08 10:32:20;;;;;;;0.45;0.45;;;;;;;;;;4866505;29;20064;-77
2023/09/08 10:34:49;;;;;;;1.30;0.25;;;;;;;;;;4870920;29;20061;-78
2023/09/08 10:37:25;;;;;;;0.00;0.00;;;;;;;;;;4872484;29;20415;-77
2023/09/08 10:39:53;;;;;;;1.02;0.20;;;;;;;;;;4858890;29;20053;-76
2023/09/08 10:42:25;;;;;;;0.40;0.40;;;;;;;;;;4869762;29;20045;-78
2023/09/08 10:45:00;;;;;;;0.88;0.88;;;;;;;;;;4868363;29;20053;-77
2023/09/08 10:47:34;;;;;;;0.50;0.50;;;;;;;;;;4866181;29;20041;-77
2023/09/08 10:50:02;;;;;;;0.40;0.40;;;;;;;;;;4867671;29;20101;-76
2023/09/08 10:52:32;;;;;;;0.73;0.73;;;;;;;;;;4871862;29;20049;-77
2023/09/08 10:55:01;;;;;;;0.10;0.10;;;;;;;;;;4872204;29;20052;-77
2023/09/08 10:57:32;;;;;;;0.28;0.28;;;;;;;;;;4873045;29;20591;-76
2023/09/08 11:00:05;;;;;;;0.00;0.00;;;;;;;;;;4870794;29;20129;-78
2023/09/08 11:02:32;;;;;;;0.73;0.20;;;;;;;;;;4868272;29;20047;-76
2023/09/08 11:05:00;;;;;;;0.00;0.00;;;;;;;;;;4870442;29;20037;-76
2023/09/08 11:07:28;;;;;;;0.32;0.30;;;;;;;;;;4871563;29;20549;-76
2023/09/08 11:09:56;;;;;;;0.00;0.00;;;;;;;;;;4872178;29;20472;-76
2023/09/08 11:12:26;;;;;;;0.03;0.03;;;;;;;;;;4873594;29;20079;-76
2023/09/08 11:14:54;;;;;;;1.25;0.93;;;;;;;;;;4874413;29;20069;-76
2023/09/08 11:17:25;;;;;;;0.55;0.55;;;;;;;;;;4865926;29;20346;-75
2023/09/08 11:19:53;;;;;;;0.22;0.22;;;;;;;;;;4874217;29;20056;-76
2023/09/08 11:22:23;;;;;;;0.00;0.00;;;;;;;;;;4874058;29;20059;-76
2023/09/08 11:24:56;;;;;;;0.00;0.00;;;;;;;;;;4866805;29;20064;-76
2023/09/08 11:27:24;;;;;;;0.20;0.10;;;;;;;;;;4874156;29;20060;-76
2023/09/08 11:29:52;;;;;;;0.22;0.22;;;;;;;;;;4874794;29;20076;-76
2023/09/08 11:32:19;;;;;;;0.82;0.32;;;;;;;;;;4874204;29;20057;-77
2023/09/08 11:34:46;;;;;;;0.40;0.40;;;;;;;;;;4874439;29;20093;-76
2023/09/08 11:37:17;;;;;;;0.00;0.00;;;;;;;;;;4874156;29;20064;-76
2023/09/08 11:39:46;;;;;;;0.20;0.20;;;;;;;;;;4874486;29;20075;-77
2023/09/08 11:42:15;;;;;;;1.60;0.93;;;;;;;;;;4874354;29;20546;-77
2023/09/08 11:44:43;;;;;;;0.40;0.40;;;;;;;;;;4863193;29;20060;-75
2023/09/08 11:47:11;;;;;;;0.00;0.00;;;;;;;;;;4863103;29;20094;-76
2023/09/08 11:49:43;;;;;;;0.10;0.10;;;;;;;;;;4872977;29;20136;-76
2023/09/08 11:52:11;;;;;;;0.50;0.50;;;;;;;;;;4874006;29;20045;-76
2023/09/08 11:54:38;;;;;;;0.20;0.20;;;;;;;;;;4859080;29;20542;-76
2023/09/08 11:57:22;;;;;;;0.00;0.00;;;;;;;;;;4873130;29;20049;-76
2023/09/08 11:59:51;;;;;;;0.10;0.10;;;;;;;;;;4874231;29;20053;-76
2023/09/08 12:02:18;;;;;;;0.88;0.88;;;;;;;;;;4866123;29;20053;-76
2023/09/08 12:04:46;;;;;;;0.00;0.00;;;;;;;;;;4866407;29;20045;-76
2023/09/08 12:07:15;;;;;;;0.10;0.10;;;;;;;;;;4872823;29;20065;-76
2023/09/08 12:09:42;;;;;;;0.10;0.10;;;;;;;;;;4873760;29;20060;-76
2023/09/08 12:12:13;;;;;;;0.00;0.00;;;;;;;;;;4873519;29;20105;-76
2023/09/08 12:14:44;;;;;;;0.73;0.73;;;;;;;;;;4873996;29;20479;-75
2023/09/08 12:17:17;;;;;;;0.20;0.20;;;;;;;;;;4868485;29;20049;-76
2023/09/08 12:19:45;;;;;;;0.10;0.10;;;;;;;;;;4873791;29;20104;-75
2023/09/08 12:22:16;;;;;;;0.80;0.75;;;;;;;;;;4872913;29;20302;-76
2023/09/08 12:25:10;;;;;;;0.00;0.00;;;;;;;;;;4868255;29;20068;-76
2023/09/08 12:27:38;;;;;;;0.10;0.10;;;;;;;;;;4871686;29;20064;-76
2023/09/08 12:30:08;;;;;;;0.03;0.03;;;;;;;;;;4873379;29;20052;-76
2023/09/08 12:32:36;;;;;;;0.10;0.10;;;;;;;;;;4873456;29;20515;-76
2023/09/08 12:35:04;;;;;;;0.10;0.10;;;;;;;;;;4855952;29;20063;-77
2023/09/08 12:37:33;;;;;;;0.20;0.20;;;;;;;;;;4867750;29;20053;-77
2023/09/08 12:40:01;;;;;;;0.30;0.30;;;;;;;;;;4872703;29;20041;-75
2023/09/08 12:42:29;;;;;;;0.30;0.03;;;;;;;;;;4856621;29;20069;-76
2023/09/08 12:44:58;;;;;;;0.00;0.00;;;;;;;;;;4859192;29;20112;-76
2023/09/08 12:47:26;;;;;;;0.05;0.05;;;;;;;;;;4871672;29;20392;-76
2023/09/08 12:49:55;;;;;;;0.10;0.10;;;;;;;;;;4872923;29;20112;-76
2023/09/08 12:52:23;;;;;;;0.40;0.35;;;;;;;;;;4872021;29;20110;-76
2023/09/08 12:54:50;;;;;;;0.47;0.47;;;;;;;;;;4856633;29;20065;-75
2023/09/08 12:57:18;;;;;;;0.95;0.80;;;;;;;;;;4872772;29;20061;-76
2023/09/08 12:59:46;;;;;;;1.42;0.65;;;;;;;;;;4872515;29;20176;-76
2023/09/08 13:02:13;;;;;;;0.10;0.10;;;;;;;;;;4868991;29;20045;-76
2023/09/08 13:04:41;;;;;;;0.00;0.00;;;;;;;;;;4872553;29;20068;-76
2023/09/08 13:07:08;;;;;;;0.70;0.70;;;;;;;;;;4872004;29;20060;-76
2023/09/08 13:09:36;;;;;;;0.00;0.00;;;;;;;;;;4871831;29;20052;-77
2023/09/08 13:12:03;;;;;;;0.40;0.40;;;;;;;;;;4871814;29;20059;-76
2023/09/08 13:17:31;;;;;;;0.38;0.38;;;;;;;;;;4848966;29;20507;-72
2023/09/08 13:19:59;;;;;;;0.00;0.00;;;;;;;;;;4851641;29;20049;-69
2023/09/08 13:22:26;;;;;;;0.22;0.22;;;;;;;;;;4866084;29;20394;-69
2023/09/08 13:24:54;;;;;;;0.80;0.55;;;;;;;;;;4870182;29;20053;-70
2023/09/08 13:27:22;;;;;;;0.43;0.43;;;;;;;;;;4868853;29;20124;-70
2023/09/08 13:29:49;;;;;;;0.03;0.03;;;;;;;;;;4868678;29;20052;-70
2023/09/08 13:32:17;;;;;;;0.05;0.05;;;;;;;;;;4871476;29;20072;-68
2023/09/08 13:34:46;;;;;;;0.00;0.00;;;;;;;;;;4871412;29;20480;-67
2023/09/08 13:37:14;;;;;;;0.00;0.00;;;;;;;;;;4870197;29;20081;-69
2023/09/08 13:39:42;;;;;;;1.52;0.30;;;;;;;;;;4869704;29;20057;-68
2023/09/08 13:42:09;;;;;;;0.85;0.85;;;;;;;;;;4870125;29;20049;-69
2023/09/08 13:44:37;;;;;;;0.20;0.20;;;;;;;;;;4870536;29;20056;-68
2023/09/08 13:47:05;;;;;;;0.38;0.38;;;;;;;;;;4870056;29;20164;-69
2023/09/08 13:49:33;;;;;;;0.20;0.20;;;;;;;;;;4868060;29;20037;-71
2023/09/08 13:52:02;;;;;;;0.20;0.20;;;;;;;;;;4869104;29;20503;-70
2023/09/08 13:54:33;;;;;;;0.20;0.20;;;;;;;;;;4868988;29;20057;-69
2023/09/08 13:57:02;;;;;;;0.22;0.22;;;;;;;;;;4871450;29;20395;-71
2023/09/08 13:59:34;;;;;;;0.10;0.10;;;;;;;;;;4870166;29;20037;-71
2023/09/08 14:02:03;;;;;;;0.55;0.55;;;;;;;;;;4871531;29;20451;-70
2023/09/08 14:04:33;;;;;;;0.90;0.90;;;;;;;;;;4873415;29;20465;-70
2023/09/08 14:07:07;;;;;;;0.28;0.28;;;;;;;;;;4873241;29;20053;-70
2023/09/08 14:09:44;;;;;;;0.30;0.30;;;;;;;;;;4871715;29;20069;-70
2023/09/08 14:12:22;;;;;;;0.10;0.10;;;;;;;;;;4873419;29;20048;-70
2023/09/08 14:14:54;;;;;;;0.00;0.00;;;;;;;;;;4874529;29;20049;-69
2023/09/08 14:17:22;;;;;;;0.00;0.00;;;;;;;;;;4873492;29;20049;-69
2023/09/08 14:19:52;;;;;;;0.17;0.17;;;;;;;;;;4874814;29;20543;-71
2023/09/08 14:22:20;;;;;;;2.85;1.20;;;;;;;;;;4874367;29;20136;-71
2023/09/08 14:24:47;;;;;;;0.20;0.20;;;;;;;;;;4873384;29;20048;-70
2023/09/08 14:27:15;;;;;;;0.17;0.17;;;;;;;;;;4874124;29;20053;-70
2023/09/08 14:29:42;;;;;;;0.00;0.00;;;;;;;;;;4874060;29;20073;-69
2023/09/08 14:32:10;;;;;;;0.20;0.20;;;;;;;;;;4873832;29;20119;-68
2023/09/08 14:34:38;;;;;;;0.82;0.60;;;;;;;;;;4874799;29;20056;-69
2023/09/08 14:37:05;;;;;;;0.95;0.95;;;;;;;;;;4873469;29;20484;-70
2023/09/08 14:39:36;;;;;;;0.40;0.40;;;;;;;;;;4874265;29;20423;-71
2023/09/08 14:42:05;;;;;;;0.30;0.30;;;;;;;;;;4874079;29;20128;-71
2023/09/08 14:44:32;;;;;;;8.02;0.80;;;;;;;;;;4874548;29;20056;-71
2023/09/08 14:47:00;;;;;;;1.30;0.22;;;;;;;;;;4874004;29;20057;-70
2023/09/08 14:49:27;;;;;;;0.90;0.82;;;;;;;;;;4873609;29;20052;-71
2023/09/08 14:51:55;;;;;;;0.00;0.00;;;;;;;;;;4874220;29;20057;-70
2023/09/08 14:54:22;;;;;;;0.88;0.45;;;;;;;;;;4873227;29;20135;-70
2023/09/08 14:56:50;;;;;;;0.82;0.82;;;;;;;;;;4873916;29;20049;-70